Time;durP1;ratioP1;P1;durP2;ratioP2;P2;SDS_P1;SDS_P2;PMS_P1;PMS_P2;Temp;Humidity;BMP_temperature;BMP_pressure;BME280_temperature;BME280_humidity;BME280_pressure;Samples;Min_cycle;Max_cycle;Signal;HPM_P1;HPM_P2
2021/03/31 00:02:25;;;;;;;13.27;7.97;;;8.20;99.90;;;;;;5021384;28;20298;-47
2021/03/31 00:04:52;;;;;;;11.27;7.87;;;8.10;99.90;;;;;;5016149;28;20215;-53
2021/03/31 00:07:18;;;;;;;10.47;7.83;;;8.10;99.90;;;;;;5024214;28;20208;-48
2021/03/31 00:09:44;;;;;;;12.17;7.73;;;8.10;99.90;;;;;;5016508;28;20263;-51
2021/03/31 00:12:12;;;;;;;12.47;7.27;;;8.10;99.90;;;;;;5019052;28;20200;-51
2021/03/31 00:14:38;;;;;;;12.87;7.77;;;8.10;99.90;;;;;;5024858;28;20712;-49
2021/03/31 00:17:04;;;;;;;11.57;7.30;;;8.10;99.90;;;;;;5022944;28;20192;-49
2021/03/31 00:19:31;;;;;;;10.97;7.43;;;8.10;99.90;;;;;;5025776;28;20772;-51
2021/03/31 00:21:57;;;;;;;11.73;7.57;;;8.10;99.90;;;;;;5013671;28;20298;-49
2021/03/31 00:24:23;;;;;;;12.97;8.00;;;8.00;99.90;;;;;;5021576;28;20222;-48
2021/03/31 00:26:49;;;;;;;12.73;8.30;;;8.00;99.90;;;;;;5009883;28;20212;-48
2021/03/31 00:29:16;;;;;;;15.83;8.23;;;7.90;99.90;;;;;;5021344;28;20307;-46
2021/03/31 00:31:42;;;;;;;10.90;8.47;;;7.90;99.90;;;;;;5023873;28;20270;-54
2021/03/31 00:34:09;;;;;;;16.97;8.10;;;7.90;99.90;;;;;;5022895;28;20192;-48
2021/03/31 00:36:35;;;;;;;13.30;8.00;;;7.80;99.90;;;;;;5017070;28;20196;-51
2021/03/31 00:39:01;;;;;;;13.77;8.47;;;7.80;99.90;;;;;;5021521;28;20212;-49
2021/03/31 00:41:27;;;;;;;12.03;8.43;;;7.80;99.90;;;;;;5012915;28;20218;-47
2021/03/31 00:43:53;;;;;;;16.37;8.70;;;7.70;99.90;;;;;;5020827;28;20829;-54
2021/03/31 00:46:21;;;;;;;14.03;8.20;;;7.60;99.90;;;;;;5024202;28;20726;-49
2021/03/31 00:48:47;;;;;;;11.53;8.00;;;7.60;99.90;;;;;;5023112;28;20560;-52
2021/03/31 00:51:13;;;;;;;9.67;7.17;;;7.60;99.90;;;;;;5057154;28;20210;-48
2021/03/31 00:53:42;;;;;;;16.50;9.10;;;7.50;99.90;;;;;;5048311;28;20235;-51
2021/03/31 00:56:09;;;;;;;10.80;8.10;;;7.50;99.90;;;;;;5011355;28;20910;-51
2021/03/31 00:58:35;;;;;;;14.67;8.83;;;7.50;99.90;;;;;;5025620;28;20285;-54
2021/03/31 01:01:02;;;;;;;12.73;8.17;;;7.50;99.90;;;;;;5016558;28;20870;-51
2021/03/31 01:03:29;;;;;;;12.20;8.27;;;7.50;99.90;;;;;;5025120;28;20212;-48
2021/03/31 01:05:55;;;;;;;12.77;8.93;;;7.40;99.90;;;;;;5019862;28;20203;-49
2021/03/31 01:08:21;;;;;;;12.60;8.40;;;7.30;99.90;;;;;;5016951;28;20224;-50
2021/03/31 01:10:50;;;;;;;10.87;8.17;;;7.30;99.90;;;;;;5021687;28;20223;-49
2021/03/31 01:13:27;;;;;;;15.10;8.00;;;7.30;99.90;;;;;;5011705;28;20294;-49
2021/03/31 01:15:58;;;;;;;12.83;8.83;;;7.30;99.90;;;;;;5020902;28;20283;-46
2021/03/31 01:18:32;;;;;;;10.27;7.80;;;7.20;99.90;;;;;;5025028;28;20212;-48
2021/03/31 01:21:39;;;;;;;15.60;8.67;;;7.20;99.90;;;;;;5017788;28;21033;-46
2021/03/31 01:24:55;;;;;;;9.50;7.80;;;7.20;99.90;;;;;;5007624;28;20302;-50
2021/03/31 01:27:31;;;;;;;14.50;8.13;;;7.10;99.90;;;;;;5001366;28;20223;-47
2021/03/31 01:30:07;;;;;;;11.80;7.90;;;7.00;99.90;;;;;;5020238;28;20309;-50
2021/03/31 01:32:51;;;;;;;10.87;7.97;;;6.90;99.90;;;;;;5017781;28;20203;-48
2021/03/31 01:35:19;;;;;;;13.10;7.73;;;7.00;99.90;;;;;;5025830;28;20231;-48
2021/03/31 01:37:50;;;;;;;11.17;8.27;;;6.90;99.90;;;;;;5019497;28;20304;-51
2021/03/31 01:40:19;;;;;;;12.93;8.13;;;7.00;99.90;;;;;;5018282;28;20224;-50
2021/03/31 01:42:48;;;;;;;14.73;8.50;;;6.90;99.90;;;;;;5009168;28;20208;-52
2021/03/31 01:45:16;;;;;;;13.60;7.97;;;6.90;99.90;;;;;;5020144;28;20202;-49
2021/03/31 01:47:46;;;;;;;13.03;8.30;;;6.90;99.90;;;;;;5024478;28;20537;-46
2021/03/31 01:50:14;;;;;;;13.83;8.20;;;6.90;99.90;;;;;;5022437;28;20222;-49
2021/03/31 01:52:42;;;;;;;12.87;7.97;;;6.90;99.90;;;;;;5023221;28;20208;-48
2021/03/31 01:55:13;;;;;;;11.77;8.10;;;6.80;99.90;;;;;;5012114;28;20212;-52
2021/03/31 01:57:40;;;;;;;11.93;8.00;;;6.80;99.90;;;;;;5010814;28;20688;-49
2021/03/31 02:00:08;;;;;;;11.10;7.27;;;6.90;99.90;;;;;;5007585;28;22996;-49
2021/03/31 02:02:39;;;;;;;10.80;7.83;;;6.80;99.90;;;;;;5023201;28;20656;-49
2021/03/31 02:05:09;;;;;;;11.83;8.40;;;6.80;99.90;;;;;;5020767;28;20243;-46
2021/03/31 02:07:35;;;;;;;12.47;8.33;;;6.80;99.90;;;;;;5021386;28;20204;-53
2021/03/31 02:10:04;;;;;;;11.30;8.33;;;6.70;99.90;;;;;;5020021;28;20333;-48
2021/03/31 02:12:30;;;;;;;11.50;8.57;;;6.70;99.90;;;;;;5015915;28;20602;-51
2021/03/31 02:14:57;;;;;;;10.57;7.97;;;6.70;99.90;;;;;;5008098;28;20293;-53
2021/03/31 02:17:26;;;;;;;8.70;7.63;;;6.70;99.90;;;;;;5024188;28;20270;-48
2021/03/31 02:19:53;;;;;;;11.73;7.47;;;6.60;99.90;;;;;;5013658;28;20232;-51
2021/03/31 02:22:22;;;;;;;12.17;7.73;;;6.60;99.90;;;;;;5021118;28;20215;-50
2021/03/31 02:24:50;;;;;;;9.37;7.20;;;6.60;99.90;;;;;;5016287;28;20188;-53
2021/03/31 02:27:17;;;;;;;9.27;7.10;;;6.60;99.90;;;;;;5016470;28;20204;-49
2021/03/31 02:29:45;;;;;;;11.37;8.17;;;6.60;99.90;;;;;;5002571;28;20222;-54
2021/03/31 02:32:14;;;;;;;12.13;8.07;;;6.50;99.90;;;;;;5022657;28;20200;-51
2021/03/31 02:34:41;;;;;;;15.57;8.17;;;6.50;99.90;;;;;;5020326;28;20200;-50
2021/03/31 02:37:07;;;;;;;10.93;7.77;;;6.40;99.90;;;;;;5018002;28;20258;-50
2021/03/31 02:39:35;;;;;;;11.27;7.67;;;6.40;99.90;;;;;;5019102;28;20220;-50
2021/03/31 02:42:02;;;;;;;10.70;7.40;;;6.40;99.90;;;;;;5023293;28;20200;-49
2021/03/31 02:44:32;;;;;;;18.77;8.43;;;6.50;99.90;;;;;;4998842;28;20200;-54
2021/03/31 02:47:01;;;;;;;11.10;7.50;;;6.40;99.90;;;;;;5023649;28;20239;-51
2021/03/31 02:49:29;;;;;;;9.37;7.40;;;6.30;99.90;;;;;;5013133;28;20369;-50
2021/03/31 02:51:57;;;;;;;12.23;8.20;;;6.40;99.90;;;;;;5017090;28;20214;-50
2021/03/31 02:54:24;;;;;;;12.87;8.00;;;6.30;99.90;;;;;;5008624;28;20261;-54
2021/03/31 02:56:50;;;;;;;11.23;7.67;;;6.30;99.90;;;;;;5027425;28;20204;-50
2021/03/31 02:59:16;;;;;;;12.00;8.03;;;6.20;99.90;;;;;;5012778;28;20774;-53
2021/03/31 03:01:44;;;;;;;11.77;7.73;;;6.20;99.90;;;;;;5007533;28;20196;-50
2021/03/31 03:04:11;;;;;;;11.93;7.83;;;6.20;99.90;;;;;;5022542;28;20207;-55
2021/03/31 03:06:38;;;;;;;10.07;7.03;;;6.20;99.90;;;;;;5019021;28;20191;-50
2021/03/31 03:09:06;;;;;;;15.50;8.20;;;6.20;99.90;;;;;;5022035;28;20285;-48
2021/03/31 03:11:34;;;;;;;12.50;7.70;;;6.10;99.90;;;;;;5018690;28;20198;-50
2021/03/31 03:14:01;;;;;;;12.90;7.70;;;6.00;99.90;;;;;;5023076;28;20215;-51
2021/03/31 03:16:27;;;;;;;11.83;7.90;;;5.90;99.90;;;;;;4994450;28;20209;-56
2021/03/31 03:18:55;;;;;;;12.10;7.33;;;5.90;99.90;;;;;;5022194;28;20208;-48
2021/03/31 03:21:22;;;;;;;12.60;8.20;;;6.00;99.90;;;;;;5020395;28;20239;-53
2021/03/31 03:23:48;;;;;;;13.93;7.80;;;5.90;99.90;;;;;;5017604;28;20218;-49
2021/03/31 03:26:17;;;;;;;10.17;6.87;;;6.00;99.90;;;;;;5023625;28;20311;-53
2021/03/31 03:28:45;;;;;;;9.00;7.83;;;5.90;99.90;;;;;;5020175;28;20224;-49
2021/03/31 03:31:12;;;;;;;9.50;7.87;;;5.90;99.90;;;;;;5011386;28;20239;-55
2021/03/31 03:33:39;;;;;;;11.20;7.20;;;5.90;99.90;;;;;;5016374;28;20670;-49
2021/03/31 03:36:08;;;;;;;12.37;7.73;;;5.90;99.90;;;;;;5019550;28;20606;-50
2021/03/31 03:38:34;;;;;;;10.97;7.60;;;5.90;99.90;;;;;;5002708;28;20885;-49
2021/03/31 03:41:02;;;;;;;13.40;8.07;;;5.90;99.90;;;;;;5017031;28;20663;-48
2021/03/31 03:43:29;;;;;;;8.70;7.10;;;5.90;99.90;;;;;;5018833;28;20196;-51
2021/03/31 03:45:58;;;;;;;10.00;6.80;;;5.90;99.90;;;;;;5014107;28;20283;-49
2021/03/31 03:48:25;;;;;;;12.80;7.97;;;5.90;99.90;;;;;;5006791;28;20231;-52
2021/03/31 03:50:51;;;;;;;10.27;7.73;;;5.80;99.90;;;;;;5016260;28;20204;-50
2021/03/31 03:53:19;;;;;;;10.17;7.97;;;5.80;99.90;;;;;;5021496;28;20544;-52
2021/03/31 03:55:46;;;;;;;11.97;8.00;;;5.80;99.90;;;;;;5016736;28;20331;-48
2021/03/31 03:58:12;;;;;;;11.27;7.07;;;5.70;99.90;;;;;;5022488;28;20196;-51
2021/03/31 04:00:39;;;;;;;10.53;7.80;;;5.70;99.90;;;;;;5012746;28;20285;-49
2021/03/31 04:03:05;;;;;;;10.97;7.23;;;5.60;99.90;;;;;;5010602;28;20216;-49
2021/03/31 04:05:31;;;;;;;14.20;7.60;;;5.60;99.90;;;;;;5016088;28;20305;-51
2021/03/31 04:07:58;;;;;;;10.33;7.27;;;5.60;99.90;;;;;;5021386;28;20552;-51
2021/03/31 04:10:27;;;;;;;14.23;7.83;;;5.50;99.90;;;;;;5019279;28;20219;-54
2021/03/31 04:12:55;;;;;;;11.67;8.07;;;5.50;99.90;;;;;;5020262;28;20208;-49
2021/03/31 04:15:21;;;;;;;11.10;8.20;;;5.50;99.90;;;;;;5015743;28;20232;-55
2021/03/31 04:17:49;;;;;;;11.20;7.03;;;5.40;99.90;;;;;;5005100;28;20266;-50
2021/03/31 04:20:18;;;;;;;13.23;8.40;;;5.40;99.90;;;;;;5023798;28;20722;-53
2021/03/31 04:22:46;;;;;;;13.93;9.17;;;5.40;99.90;;;;;;5025227;28;20894;-48
2021/03/31 04:25:14;;;;;;;11.10;8.40;;;5.40;99.90;;;;;;5020061;28;20206;-50
2021/03/31 04:27:43;;;;;;;10.23;7.43;;;5.40;99.90;;;;;;5019293;28;20294;-47
2021/03/31 04:30:13;;;;;;;13.50;8.40;;;5.40;99.90;;;;;;5018850;28;20224;-53
2021/03/31 04:32:40;;;;;;;13.37;8.93;;;5.30;99.90;;;;;;5001142;28;20518;-46
2021/03/31 04:35:09;;;;;;;14.23;9.20;;;5.30;99.90;;;;;;5019729;28;20211;-48
2021/03/31 04:37:36;;;;;;;12.10;8.30;;;5.30;99.90;;;;;;5022224;28;20910;-47
2021/03/31 04:40:04;;;;;;;11.37;8.30;;;5.20;99.90;;;;;;5025205;28;20711;-48
2021/03/31 04:42:30;;;;;;;10.90;8.17;;;5.10;99.90;;;;;;5017411;28;20207;-50
2021/03/31 04:44:57;;;;;;;11.20;8.30;;;5.10;99.90;;;;;;5022553;28;20839;-51
2021/03/31 04:47:23;;;;;;;11.07;8.13;;;5.10;99.90;;;;;;5007349;28;20287;-51
2021/03/31 04:49:49;;;;;;;11.70;7.83;;;5.00;99.90;;;;;;5016360;28;20354;-48
2021/03/31 04:52:16;;;;;;;12.17;7.83;;;5.10;99.90;;;;;;5023913;28;20188;-51
2021/03/31 04:54:42;;;;;;;11.70;8.30;;;5.10;99.90;;;;;;5017611;28;20525;-49
2021/03/31 04:57:08;;;;;;;10.43;7.20;;;5.10;99.90;;;;;;5018295;28;20261;-54
2021/03/31 04:59:34;;;;;;;14.03;8.57;;;5.20;99.90;;;;;;5007414;28;20228;-53
2021/03/31 05:02:02;;;;;;;12.67;8.47;;;5.10;99.90;;;;;;5025221;28;20274;-53
2021/03/31 05:04:28;;;;;;;13.53;8.53;;;5.10;99.90;;;;;;5002296;28;20223;-50
2021/03/31 05:06:54;;;;;;;11.07;7.63;;;5.10;99.90;;;;;;5020087;28;20682;-46
2021/03/31 05:09:20;;;;;;;15.87;8.53;;;5.10;99.90;;;;;;5017055;28;20560;-50
2021/03/31 05:11:46;;;;;;;9.57;7.03;;;5.10;99.90;;;;;;5017704;28;20243;-46
2021/03/31 05:14:12;;;;;;;11.83;8.27;;;5.00;99.90;;;;;;5023710;28;20617;-53
2021/03/31 05:16:38;;;;;;;11.20;8.03;;;5.10;99.90;;;;;;5010164;28;20894;-47
2021/03/31 05:19:06;;;;;;;15.67;8.23;;;5.00;99.90;;;;;;5009311;28;20219;-48
2021/03/31 05:21:32;;;;;;;11.07;7.90;;;5.00;99.90;;;;;;5015413;28;20206;-49
2021/03/31 05:23:58;;;;;;;11.20;8.07;;;5.00;99.90;;;;;;5024056;28;20202;-53
2021/03/31 05:26:24;;;;;;;13.33;8.10;;;5.10;99.90;;;;;;5016419;28;20250;-52
2021/03/31 05:28:50;;;;;;;13.00;8.90;;;5.10;99.90;;;;;;5019023;28;20354;-47
2021/03/31 05:31:16;;;;;;;14.80;8.90;;;5.10;99.90;;;;;;5014733;28;20673;-50
2021/03/31 05:33:43;;;;;;;18.80;9.47;;;5.10;99.90;;;;;;5015086;28;20200;-50
2021/03/31 05:36:10;;;;;;;18.77;10.27;;;5.30;99.90;;;;;;5000691;28;20202;-52
2021/03/31 05:38:37;;;;;;;13.30;8.30;;;5.40;99.90;;;;;;5008512;28;20269;-48
2021/03/31 05:41:03;;;;;;;14.57;8.50;;;5.40;99.90;;;;;;5020888;28;20279;-48
2021/03/31 05:43:29;;;;;;;8.80;7.23;;;5.40;99.90;;;;;;5013582;28;20184;-47
2021/03/31 05:45:56;;;;;;;14.23;8.60;;;5.40;99.90;;;;;;5024825;28;20188;-47
2021/03/31 05:48:22;;;;;;;13.50;7.70;;;5.40;99.90;;;;;;5013061;28;20226;-46
2021/03/31 05:50:48;;;;;;;12.23;8.87;;;5.40;99.90;;;;;;5009973;28;20211;-48
2021/03/31 05:53:16;;;;;;;12.87;8.80;;;5.50;99.90;;;;;;5022376;28;20200;-51
2021/03/31 05:55:42;;;;;;;15.30;8.30;;;5.50;99.90;;;;;;5016845;28;20289;-52
2021/03/31 05:58:09;;;;;;;14.77;9.60;;;5.50;99.90;;;;;;5014539;28;20814;-49
2021/03/31 06:00:36;;;;;;;13.37;8.13;;;5.60;99.90;;;;;;5019953;28;20210;-50
2021/03/31 06:03:03;;;;;;;14.80;8.90;;;5.60;99.90;;;;;;5016163;28;20831;-48
2021/03/31 06:05:31;;;;;;;16.00;8.83;;;5.60;99.90;;;;;;5009818;28;20215;-51
2021/03/31 06:07:58;;;;;;;13.33;9.17;;;5.70;99.90;;;;;;5014919;28;20814;-48
2021/03/31 06:10:26;;;;;;;14.70;9.70;;;5.70;99.90;;;;;;5020102;28;20230;-48
2021/03/31 06:12:55;;;;;;;13.03;9.07;;;5.80;99.90;;;;;;5012197;28;20200;-51
2021/03/31 06:15:28;;;;;;;16.23;9.77;;;5.90;99.90;;;;;;5015413;28;20669;-50
2021/03/31 06:17:56;;;;;;;13.27;8.83;;;5.90;99.90;;;;;;5011606;28;20219;-49
2021/03/31 06:20:36;;;;;;;15.20;10.30;;;6.00;99.90;;;;;;5018386;28;20203;-52
2021/03/31 06:23:11;;;;;;;15.67;9.77;;;6.10;99.90;;;;;;5017027;28;20979;-49
2021/03/31 06:25:45;;;;;;;16.17;9.83;;;6.20;99.90;;;;;;5015021;28;20286;-49
2021/03/31 06:28:11;;;;;;;16.33;10.20;;;6.30;99.90;;;;;;5024591;28;20208;-51
2021/03/31 06:30:38;;;;;;;15.33;9.40;;;6.40;99.90;;;;;;5011042;28;20247;-52
2021/03/31 06:33:05;;;;;;;15.60;10.77;;;6.50;99.90;;;;;;5020811;28;20559;-50
2021/03/31 06:35:31;;;;;;;16.47;11.07;;;6.60;99.90;;;;;;5006192;28;20206;-51
2021/03/31 06:38:06;;;;;;;13.27;10.23;;;6.70;99.90;;;;;;5004333;28;20279;-50
2021/03/31 06:40:37;;;;;;;19.00;11.00;;;6.80;99.90;;;;;;5039779;28;21241;-47
2021/03/31 06:43:19;;;;;;;19.00;10.73;;;6.90;99.90;;;;;;5018971;28;20211;-51
2021/03/31 06:45:52;;;;;;;19.63;11.50;;;7.10;99.90;;;;;;5015738;28;20311;-49
2021/03/31 06:48:19;;;;;;;17.27;10.43;;;7.30;99.90;;;;;;5016463;28;20619;-55
2021/03/31 06:50:45;;;;;;;20.93;12.13;;;7.50;99.90;;;;;;5012686;23;20293;-47
2021/03/31 06:53:11;;;;;;;17.10;10.87;;;7.70;99.90;;;;;;4983639;28;20591;-55
2021/03/31 06:55:37;;;;;;;21.10;12.10;;;8.00;99.90;;;;;;4987071;28;20213;-49
2021/03/31 06:58:07;;;;;;;17.57;10.77;;;8.20;99.90;;;;;;4997379;28;20201;-50
2021/03/31 07:00:36;;;;;;;18.30;10.97;;;8.40;99.90;;;;;;4985226;28;20192;-49
2021/03/31 07:03:05;;;;;;;15.80;11.40;;;8.60;99.90;;;;;;4978540;28;20297;-49
2021/03/31 07:05:33;;;;;;;17.10;11.10;;;8.70;99.90;;;;;;4971201;28;20194;-50
2021/03/31 07:08:05;;;;;;;20.80;11.37;;;8.80;99.90;;;;;;4984868;28;20194;-47
2021/03/31 07:10:42;;;;;;;19.43;11.73;;;8.90;99.90;;;;;;4960717;28;20707;-47
2021/03/31 07:13:09;;;;;;;15.37;11.40;;;9.00;99.90;;;;;;4973571;28;20272;-53
2021/03/31 07:15:36;;;;;;;16.53;11.00;;;9.10;99.90;;;;;;4981794;28;20917;-49
2021/03/31 07:18:03;;;;;;;16.23;11.07;;;9.30;99.90;;;;;;4979095;28;20201;-50
2021/03/31 07:20:30;;;;;;;17.27;11.10;;;9.50;99.90;;;;;;4969086;28;20193;-50
2021/03/31 07:23:00;;;;;;;17.60;11.97;;;9.80;99.90;;;;;;4982922;28;20527;-53
2021/03/31 07:25:26;;;;;;;17.75;11.65;;;10.00;99.90;;;;;;4952408;28;20448;-55
2021/03/31 07:27:56;;;;;;;16.33;11.50;;;10.10;99.90;;;;;;4982413;28;20201;-52
2021/03/31 07:30:26;;;;;;;15.93;10.90;;;10.20;99.90;;;;;;4976714;28;20296;-55
2021/03/31 07:32:58;;;;;;;17.80;11.43;;;10.40;99.90;;;;;;4980931;28;20240;-54
2021/03/31 07:35:26;;;;;;;18.10;11.13;;;10.70;99.90;;;;;;4973602;28;20598;-57
2021/03/31 07:37:53;;;;;;;14.13;11.30;;;10.90;99.90;;;;;;4975905;28;20201;-50
2021/03/31 07:40:20;;;;;;;18.13;12.13;;;11.00;99.90;;;;;;4965229;28;20228;-57
2021/03/31 07:42:50;;;;;;;17.63;11.60;;;11.10;99.90;;;;;;4971790;28;20238;-55
2021/03/31 07:45:18;;;;;;;21.63;11.63;;;11.20;99.90;;;;;;4980476;28;20789;-55
2021/03/31 07:47:45;;;;;;;17.47;11.43;;;11.40;99.90;;;;;;4967115;28;20214;-51
2021/03/31 07:50:13;;;;;;;17.33;11.50;;;11.50;99.90;;;;;;4981848;28;20360;-57
2021/03/31 07:52:50;;;;;;;16.97;11.50;;;11.70;99.90;;;;;;4977671;28;20410;-53
2021/03/31 07:55:39;;;;;;;19.27;11.73;;;11.90;99.90;;;;;;4968046;28;20295;-55
2021/03/31 07:58:24;;;;;;;17.73;11.57;;;12.10;99.90;;;;;;4976875;28;20642;-52
2021/03/31 08:00:53;;;;;;;22.60;11.93;;;12.30;99.90;;;;;;4985887;28;20339;-55
2021/03/31 08:03:22;;;;;;;19.87;11.70;;;12.50;99.90;;;;;;4977626;28;20205;-53
2021/03/31 08:06:09;;;;;;;15.33;10.67;;;12.60;99.90;;;;;;4985639;28;20335;-56
2021/03/31 08:08:37;;;;;;;19.80;11.03;;;12.90;99.90;;;;;;4981052;28;20916;-54
2021/03/31 08:11:04;;;;;;;16.27;11.60;;;13.20;99.90;;;;;;4969150;28;20588;-52
2021/03/31 08:13:32;;;;;;;18.20;11.50;;;13.40;99.90;;;;;;4976292;28;20201;-55
2021/03/31 08:16:00;;;;;;;17.73;11.00;;;13.60;99.90;;;;;;4988070;28;20224;-56
2021/03/31 08:18:27;;;;;;;18.63;11.77;;;13.80;99.90;;;;;;4977971;28;20382;-55
2021/03/31 08:20:55;;;;;;;18.03;12.03;;;14.00;99.90;;;;;;4984671;28;20205;-55
2021/03/31 08:23:48;;;;;;;18.50;11.90;;;14.10;99.90;;;;;;4976164;28;20201;-52
2021/03/31 08:26:32;;;;;;;17.77;11.20;;;14.40;99.50;;;;;;4968572;28;20202;-54
2021/03/31 08:28:59;;;;;;;17.80;11.40;;;14.70;98.20;;;;;;4983416;28;20725;-56
2021/03/31 08:31:27;;;;;;;19.80;11.90;;;14.80;99.10;;;;;;4978986;28;20946;-55
2021/03/31 08:33:54;;;;;;;18.27;11.87;;;14.90;97.40;;;;;;4982234;28;20205;-55
2021/03/31 08:36:21;;;;;;;17.67;11.80;;;15.10;95.70;;;;;;4981907;28;20358;-55
2021/03/31 08:38:52;;;;;;;23.83;11.67;;;15.30;93.20;;;;;;4981843;28;20721;-54
2021/03/31 08:41:20;;;;;;;21.03;11.77;;;15.60;92.90;;;;;;4966014;28;20220;-55
2021/03/31 08:43:48;;;;;;;17.13;11.67;;;15.70;92.40;;;;;;4979492;28;21018;-54
2021/03/31 08:46:27;;;;;;;18.07;11.97;;;15.80;90.80;;;;;;4975106;28;20220;-55
2021/03/31 08:48:53;;;;;;;22.30;12.23;;;15.90;88.40;;;;;;4971249;28;20304;-51
2021/03/31 08:51:20;;;;;;;17.67;11.50;;;16.10;84.40;;;;;;4977605;28;20233;-52
2021/03/31 08:53:47;;;;;;;15.67;11.53;;;16.20;82.30;;;;;;4979013;28;20243;-50
2021/03/31 08:56:18;;;;;;;21.10;11.87;;;16.40;77.90;;;;;;4971023;28;20973;-52
2021/03/31 08:58:47;;;;;;;18.57;11.53;;;16.50;72.00;;;;;;4982205;28;20324;-53
2021/03/31 09:01:14;;;;;;;20.83;11.87;;;16.60;72.10;;;;;;4978238;28;21048;-54
2021/03/31 09:03:40;;;;;;;18.30;11.70;;;16.70;67.50;;;;;;4982683;28;20232;-50
2021/03/31 09:06:06;;;;;;;16.23;11.27;;;16.90;64.90;;;;;;4970144;28;20201;-54
2021/03/31 09:08:32;;;;;;;18.33;11.00;;;17.00;63.30;;;;;;4977099;28;20717;-51
2021/03/31 09:11:01;;;;;;;18.53;11.90;;;17.10;64.30;;;;;;4966526;28;20217;-53
2021/03/31 09:13:30;;;;;;;17.03;11.03;;;17.20;62.60;;;;;;4979676;28;20212;-48
2021/03/31 09:15:58;;;;;;;22.70;12.17;;;17.30;62.60;;;;;;4976944;28;20221;-53
2021/03/31 09:18:24;;;;;;;19.77;12.00;;;17.30;61.50;;;;;;4977440;28;21138;-50
2021/03/31 09:20:51;;;;;;;18.70;11.27;;;17.40;61.00;;;;;;4977330;28;20219;-54
2021/03/31 09:23:23;;;;;;;20.03;11.50;;;17.40;60.30;;;;;;4976722;28;20912;-49
2021/03/31 09:26:02;;;;;;;19.07;12.07;;;17.60;60.40;;;;;;4962149;28;20674;-52
2021/03/31 09:28:31;;;;;;;16.77;11.27;;;17.60;57.70;;;;;;4981280;28;20300;-52
2021/03/31 09:31:00;;;;;;;18.40;12.30;;;17.70;58.30;;;;;;4975270;28;20232;-48
2021/03/31 09:33:30;;;;;;;15.90;11.37;;;17.80;58.50;;;;;;4984897;28;20216;-53
2021/03/31 09:36:12;;;;;;;17.47;10.97;;;17.90;57.00;;;;;;4974327;28;20272;-53
2021/03/31 09:38:38;;;;;;;14.90;10.17;;;18.10;52.50;;;;;;4980561;28;20225;-54
2021/03/31 09:41:05;;;;;;;19.47;11.57;;;18.20;53.30;;;;;;4962551;28;21527;-51
2021/03/31 09:43:32;;;;;;;17.90;11.80;;;18.20;52.30;;;;;;4984600;28;20193;-50
2021/03/31 09:45:59;;;;;;;18.47;11.00;;;18.30;51.00;;;;;;4975772;28;20223;-54
2021/03/31 09:48:25;;;;;;;20.23;10.70;;;18.40;50.70;;;;;;4978307;28;20235;-51
2021/03/31 09:50:53;;;;;;;19.17;12.00;;;18.50;49.90;;;;;;4978374;28;20264;-54
2021/03/31 09:53:23;;;;;;;18.60;11.20;;;18.60;50.00;;;;;;4977114;28;20625;-53
2021/03/31 09:55:50;;;;;;;18.20;10.93;;;18.70;49.60;;;;;;4971590;28;20229;-54
2021/03/31 09:58:22;;;;;;;19.53;11.87;;;18.70;49.60;;;;;;4962514;28;20300;-52
2021/03/31 10:00:49;;;;;;;19.23;10.97;;;18.80;48.30;;;;;;4981118;28;20220;-48
2021/03/31 10:03:15;;;;;;;18.07;11.30;;;18.80;49.50;;;;;;4980416;28;20240;-52
2021/03/31 10:05:42;;;;;;;18.33;10.90;;;18.90;49.50;;;;;;4973560;28;20208;-51
2021/03/31 10:08:10;;;;;;;22.37;11.47;;;18.90;50.10;;;;;;4977467;28;20206;-50
2021/03/31 10:10:41;;;;;;;19.80;11.63;;;19.00;48.10;;;;;;4968776;28;20213;-57
2021/03/31 10:13:07;;;;;;;19.40;11.57;;;19.10;47.70;;;;;;4970532;28;20574;-51
2021/03/31 10:15:33;;;;;;;18.10;11.27;;;19.10;48.30;;;;;;4980993;28;20426;-56
2021/03/31 10:18:00;;;;;;;21.13;11.10;;;19.20;48.80;;;;;;4979070;28;20300;-50
2021/03/31 10:20:31;;;;;;;17.07;10.83;;;19.30;48.70;;;;;;4978573;28;20666;-56
2021/03/31 10:22:57;;;;;;;19.90;11.60;;;19.30;48.80;;;;;;4983147;28;20198;-50
2021/03/31 10:25:25;;;;;;;16.20;10.70;;;19.30;49.30;;;;;;4976649;28;20198;-54
2021/03/31 10:27:51;;;;;;;17.70;10.73;;;19.40;46.80;;;;;;4958255;28;20865;-51
2021/03/31 10:30:25;;;;;;;17.00;11.20;;;19.50;46.00;;;;;;4981554;28;20225;-51
2021/03/31 10:32:52;;;;;;;18.47;11.67;;;19.60;45.00;;;;;;4971208;28;21030;-50
2021/03/31 10:35:45;;;;;;;16.50;10.60;;;19.70;44.60;;;;;;4979865;28;20212;-53
2021/03/31 10:38:20;;;;;;;17.43;12.03;;;19.70;45.70;;;;;;4981380;28;20281;-54
2021/03/31 10:41:12;;;;;;;14.40;10.20;;;19.70;46.10;;;;;;4966400;28;20208;-51
2021/03/31 10:46:50;;;;;;;23.27;12.60;;;19.80;45.60;;;;;;4979274;28;20221;-54
2021/03/31 10:49:30;;;;;;;22.83;11.37;;;19.90;44.80;;;;;;4975291;28;20237;-51
2021/03/31 10:51:58;;;;;;;18.13;11.37;;;19.90;43.40;;;;;;4974959;28;20991;-50
2021/03/31 10:54:26;;;;;;;16.57;11.30;;;19.90;43.90;;;;;;4978981;28;20201;-50
2021/03/31 10:57:04;;;;;;;18.93;11.67;;;20.00;44.50;;;;;;4974224;28;20213;-51
2021/03/31 10:59:31;;;;;;;16.10;10.93;;;20.00;44.00;;;;;;4964257;28;20222;-50
2021/03/31 11:01:57;;;;;;;18.33;11.43;;;20.10;44.30;;;;;;4981599;28;20195;-49
2021/03/31 11:04:23;;;;;;;18.70;11.33;;;20.20;43.70;;;;;;4977198;28;20201;-51
2021/03/31 11:06:49;;;;;;;18.47;10.83;;;20.20;43.60;;;;;;4973329;28;20292;-50
2021/03/31 11:09:16;;;;;;;21.70;13.03;;;20.30;44.10;;;;;;4982390;28;20215;-51
2021/03/31 11:11:42;;;;;;;17.10;11.17;;;20.40;43.50;;;;;;4965754;28;20284;-47
2021/03/31 11:14:09;;;;;;;15.67;11.00;;;20.50;44.20;;;;;;4984695;28;20209;-51
2021/03/31 11:16:36;;;;;;;21.03;11.40;;;20.60;43.70;;;;;;4964091;28;20214;-52
2021/03/31 11:19:11;;;;;;;18.43;12.17;;;20.60;43.40;;;;;;4977763;28;20790;-48
2021/03/31 11:27:03;;;;;;;18.37;11.00;;;20.90;44.60;;;;;;4979711;28;20208;-50
2021/03/31 11:29:29;;;;;;;19.30;11.00;;;21.00;43.70;;;;;;4981263;28;20296;-50
2021/03/31 11:31:55;;;;;;;18.30;11.67;;;21.00;44.10;;;;;;4967194;28;20201;-52
2021/03/31 11:34:21;;;;;;;17.30;10.87;;;21.00;44.20;;;;;;4976880;28;20504;-52
2021/03/31 11:36:50;;;;;;;17.07;11.23;;;21.10;43.50;;;;;;4975321;28;20701;-49
2021/03/31 11:39:18;;;;;;;18.90;11.23;;;21.20;42.90;;;;;;4979409;28;20603;-51
2021/03/31 11:41:45;;;;;;;16.70;11.73;;;21.30;42.90;;;;;;4975853;28;20271;-48
2021/03/31 11:44:11;;;;;;;17.77;11.87;;;21.20;43.00;;;;;;4978839;28;20259;-50
2021/03/31 11:46:37;;;;;;;19.17;11.23;;;21.30;43.40;;;;;;4966455;28;20197;-56
2021/03/31 11:49:03;;;;;;;20.87;11.47;;;21.30;43.40;;;;;;4982783;28;20229;-51
2021/03/31 11:51:30;;;;;;;21.17;11.50;;;21.30;43.30;;;;;;4975011;28;20205;-54
2021/03/31 11:53:56;;;;;;;17.50;11.03;;;21.40;43.80;;;;;;4975897;28;20201;-47
2021/03/31 11:56:22;;;;;;;19.37;10.70;;;21.50;43.40;;;;;;4973805;28;20356;-55
2021/03/31 11:58:49;;;;;;;19.37;11.23;;;21.50;42.50;;;;;;4970337;28;20568;-54
2021/03/31 12:01:16;;;;;;;17.67;11.67;;;21.50;41.90;;;;;;4983349;28;20202;-52
2021/03/31 12:03:42;;;;;;;16.80;11.13;;;21.60;42.20;;;;;;4965949;28;20950;-52
2021/03/31 12:06:08;;;;;;;22.70;13.10;;;21.70;43.00;;;;;;4978903;28;20227;-53
2021/03/31 12:08:34;;;;;;;21.23;12.00;;;21.70;42.20;;;;;;4980832;28;20256;-54
2021/03/31 12:11:01;;;;;;;19.47;11.33;;;21.70;42.60;;;;;;4977627;28;20221;-52
2021/03/31 12:13:27;;;;;;;17.50;10.43;;;21.70;42.50;;;;;;4976473;28;20238;-53
2021/03/31 12:15:54;;;;;;;19.77;11.33;;;21.80;43.40;;;;;;4979141;28;20205;-50
2021/03/31 12:18:20;;;;;;;19.10;11.17;;;21.90;43.80;;;;;;4968547;28;20217;-53
2021/03/31 12:20:46;;;;;;;15.73;10.23;;;21.90;43.00;;;;;;4980380;28;20189;-52
2021/03/31 12:23:12;;;;;;;17.20;10.37;;;21.90;43.10;;;;;;4979206;28;20260;-50
2021/03/31 12:25:39;;;;;;;17.83;10.60;;;22.00;41.20;;;;;;4974401;28;20209;-53
2021/03/31 12:28:05;;;;;;;16.73;10.33;;;22.00;40.00;;;;;;4979165;28;20205;-54
2021/03/31 12:30:31;;;;;;;18.60;11.50;;;22.00;40.10;;;;;;4975307;28;20217;-55
2021/03/31 12:32:58;;;;;;;20.07;10.03;;;22.10;40.30;;;;;;4981884;28;20374;-48
2021/03/31 12:35:24;;;;;;;17.00;11.30;;;22.10;41.10;;;;;;4966743;28;20224;-54
2021/03/31 12:37:51;;;;;;;16.23;10.93;;;22.20;40.70;;;;;;4974439;28;20923;-53
2021/03/31 12:40:18;;;;;;;15.90;11.67;;;22.20;40.10;;;;;;4981821;28;20236;-46
2021/03/31 12:42:44;;;;;;;17.37;9.70;;;22.30;39.60;;;;;;4980551;28;20201;-47
2021/03/31 12:45:11;;;;;;;20.30;9.93;;;22.40;40.50;;;;;;4976332;28;20605;-50
2021/03/31 12:47:38;;;;;;;17.90;10.60;;;22.50;41.10;;;;;;4979904;28;20355;-50
2021/03/31 12:50:07;;;;;;;17.20;9.50;;;22.50;40.10;;;;;;4970634;28;20600;-47
2021/03/31 12:52:39;;;;;;;16.17;9.67;;;22.50;39.40;;;;;;4974704;28;20205;-48
2021/03/31 12:55:09;;;;;;;14.87;8.97;;;22.50;39.90;;;;;;4976794;28;20205;-48